Terminal Aerodrome Forecast
Issued by NWS

Home | Current Version | Previous Version | Graphics & Text | Print | Product List | Glossary On
Versions: 1 2 3 4 5 6 7 8 9 10 11 12 13 14 15 16 17 18 19
250
FTUS43 KOAX 231720
TAFCDR
TAF
KCDR 231720Z 2318/2418 22018G28KT P6SM BKN150
     FM232200 21011KT P6SM SCT150
     FM240300 18018G25KT P6SM SCT150
     FM240800 26013KT P6SM BKN120=

USA.gov is the U.S. government's official web portal to all federal, state and local government web resources and services.